createdAt,value
2023-03-02T00:02:13.663Z,-2.50
2023-03-02T00:04:45.810Z,-2.51
2023-03-02T00:07:27.944Z,-2.55
2023-03-02T00:09:55.858Z,-2.58
2023-03-02T00:12:27.045Z,-2.60
2023-03-02T00:14:55.362Z,-2.63
2023-03-02T00:17:27.951Z,-2.64
2023-03-02T00:20:11.244Z,-2.64
2023-03-02T00:22:41.111Z,-2.64
2023-03-02T00:25:10.016Z,-2.62
2023-03-02T00:27:37.944Z,-2.65
2023-03-02T00:30:07.477Z,-2.66
2023-03-02T00:32:35.420Z,-2.75
2023-03-02T00:35:04.509Z,-2.85
2023-03-02T00:37:34.515Z,-2.88
2023-03-02T00:40:06.307Z,-2.92
2023-03-02T00:42:34.380Z,-2.95
2023-03-02T00:45:04.799Z,-2.97
2023-03-02T00:47:37.212Z,-2.97
2023-03-02T00:50:06.746Z,-2.98
2023-03-02T00:52:35.060Z,-2.98
2023-03-02T00:55:02.952Z,-3.00
2023-03-02T00:57:31.476Z,-2.98
2023-03-02T00:59:59.984Z,-3.01
2023-03-02T01:02:33.813Z,-3.09
2023-03-02T01:05:01.971Z,-3.14
2023-03-02T01:07:29.889Z,-3.16
2023-03-02T01:09:57.985Z,-3.14
2023-03-02T01:12:25.876Z,-3.14
2023-03-02T01:14:54.916Z,-3.15
2023-03-02T01:17:22.980Z,-3.17
2023-03-02T01:19:51.721Z,-3.17
2023-03-02T01:22:20.705Z,-3.18
2023-03-02T01:24:49.025Z,-3.15
2023-03-02T01:27:16.955Z,-3.16
2023-03-02T01:29:45.302Z,-3.11
2023-03-02T01:32:13.372Z,-3.09
2023-03-02T01:34:41.430Z,-3.11
2023-03-02T01:37:09.324Z,-3.16
2023-03-02T01:39:37.347Z,-3.20
2023-03-02T01:42:05.492Z,-3.23
2023-03-02T01:44:39.886Z,-3.25
2023-03-02T01:47:17.312Z,-3.27
2023-03-02T01:50:05.222Z,-3.27
2023-03-02T01:52:39.984Z,-3.28
2023-03-02T01:55:12.020Z,-3.27
2023-03-02T01:57:44.484Z,-3.26
2023-03-02T02:00:36.698Z,-3.26
2023-03-02T02:03:21.250Z,-3.24
2023-03-02T02:06:00.738Z,-3.26
2023-03-02T02:08:28.802Z,-3.29
2023-03-02T02:10:56.842Z,-3.31
2023-03-02T02:13:25.087Z,-3.38
2023-03-02T02:15:52.953Z,-3.48
2023-03-02T02:18:20.898Z,-3.55
2023-03-02T02:20:51.812Z,-3.58
2023-03-02T02:23:33.767Z,-3.60
2023-03-02T02:26:12.150Z,-3.60
2023-03-02T02:28:45.016Z,-3.59
2023-03-02T02:31:13.014Z,-3.59
2023-03-02T02:33:46.066Z,-3.58
2023-03-02T02:36:23.208Z,-3.57
2023-03-02T02:38:55.956Z,-3.54
2023-03-02T02:41:28.763Z,-3.52
2023-03-02T02:43:57.206Z,-3.51
2023-03-02T02:46:25.968Z,-3.55
2023-03-02T02:48:54.458Z,-3.66
2023-03-02T02:51:26.646Z,-3.73
2023-03-02T02:54:02.724Z,-3.77
2023-03-02T02:56:38.367Z,-3.81
2023-03-02T02:59:22.852Z,-3.85
2023-03-02T03:01:51.748Z,-3.84
2023-03-02T03:04:26.797Z,-3.81
2023-03-02T03:06:58.050Z,-3.79
2023-03-02T03:09:27.581Z,-3.77
2023-03-02T03:12:14.009Z,-3.75
2023-03-02T03:14:43.406Z,-3.74
2023-03-02T03:17:14.027Z,-3.69
2023-03-02T03:19:55.217Z,-3.72
2023-03-02T03:22:23.496Z,-3.75
2023-03-02T03:24:51.749Z,-3.78
2023-03-02T03:27:19.902Z,-3.81
2023-03-02T03:29:48.463Z,-3.85
2023-03-02T03:32:19.793Z,-3.90
2023-03-02T03:34:48.494Z,-3.96
2023-03-02T03:37:22.280Z,-3.98
2023-03-02T03:39:51.134Z,-3.98
2023-03-02T03:42:19.362Z,-3.99
2023-03-02T03:44:47.695Z,-3.97
2023-03-02T03:47:16.057Z,-3.96
2023-03-02T03:49:44.604Z,-3.93
2023-03-02T03:52:12.606Z,-3.90
2023-03-02T03:54:40.747Z,-3.93
2023-03-02T03:57:10.749Z,-3.95
2023-03-02T03:59:38.822Z,-4.02
2023-03-02T04:02:07.043Z,-4.06
2023-03-02T04:04:37.943Z,-4.05
2023-03-02T04:07:10.024Z,-4.09
2023-03-02T04:09:39.410Z,-4.12
2023-03-02T04:12:11.730Z,-4.16
2023-03-02T04:14:42.396Z,-4.19
2023-03-02T04:17:10.283Z,-4.17
2023-03-02T04:19:42.338Z,-4.17
2023-03-02T04:22:10.722Z,-4.18
2023-03-02T04:24:38.655Z,-4.20
2023-03-02T04:27:06.663Z,-4.16
2023-03-02T04:29:37.003Z,-4.04
2023-03-02T04:32:07.433Z,-3.95
2023-03-02T04:34:37.744Z,-3.81
2023-03-02T04:37:05.990Z,-3.63
2023-03-02T04:39:34.219Z,-3.46
2023-03-02T04:42:02.278Z,-3.32
2023-03-02T04:44:30.280Z,-3.13
2023-03-02T04:46:58.359Z,-2.97
2023-03-02T04:49:26.390Z,-2.82
2023-03-02T04:51:54.563Z,-2.66
2023-03-02T04:54:26.923Z,-2.56
2023-03-02T04:56:55.806Z,-2.44
2023-03-02T04:59:27.258Z,-2.32
2023-03-02T05:01:58.974Z,-2.28
2023-03-02T05:04:28.719Z,-2.23
2023-03-02T05:06:57.837Z,-2.13
2023-03-02T05:09:31.057Z,-2.08
2023-03-02T05:12:01.390Z,-2.00
2023-03-02T05:14:30.247Z,-1.93
2023-03-02T05:16:58.817Z,-1.88
2023-03-02T05:19:26.798Z,-1.84
2023-03-02T05:21:56.577Z,-1.77
2023-03-02T05:24:24.991Z,-1.66
2023-03-02T05:26:52.944Z,-1.54
2023-03-02T05:29:20.900Z,-1.50
2023-03-02T05:31:49.773Z,-1.47
2023-03-02T05:34:18.255Z,-1.44
2023-03-02T05:36:46.594Z,-1.41
2023-03-02T05:39:14.580Z,-1.34
2023-03-02T05:41:42.465Z,-1.28
2023-03-02T05:44:12.193Z,-1.25
2023-03-02T05:46:40.728Z,-1.14
2023-03-02T05:49:08.842Z,-1.05
2023-03-02T05:51:36.678Z,-0.94
2023-03-02T05:54:04.691Z,-0.82
2023-03-02T05:56:33.182Z,-0.71
2023-03-02T05:59:01.470Z,-0.65
2023-03-02T06:01:29.338Z,-0.63
2023-03-02T06:03:57.208Z,-0.60
2023-03-02T06:06:25.225Z,-0.56
2023-03-02T06:08:53.075Z,-0.53
2023-03-02T06:11:21.096Z,-0.50
2023-03-02T06:13:49.071Z,-0.45
2023-03-02T06:16:17.142Z,-0.41
2023-03-02T06:18:44.920Z,-0.36
2023-03-02T06:21:13.111Z,-0.37
2023-03-02T06:23:41.050Z,-0.33
2023-03-02T06:26:10.882Z,-0.29
2023-03-02T06:28:51.503Z,-0.24
2023-03-02T06:31:21.872Z,-0.17
2023-03-02T06:33:50.244Z,-0.09
2023-03-02T06:36:18.442Z,-0.04
2023-03-02T06:38:46.564Z,-0.01
2023-03-02T06:41:14.804Z,0.01
2023-03-02T06:43:43.013Z,0.04
2023-03-02T06:46:11.956Z,0.06
2023-03-02T06:48:40.046Z,0.12
2023-03-02T06:51:08.608Z,0.18
2023-03-02T06:53:36.751Z,0.19
2023-03-02T06:56:05.255Z,0.20
2023-03-02T06:58:33.289Z,0.26
2023-03-02T07:01:01.451Z,0.35
2023-03-02T07:03:29.641Z,0.44
2023-03-02T07:05:57.732Z,0.56
2023-03-02T07:08:26.101Z,0.65
2023-03-02T07:10:54.045Z,0.66
2023-03-02T07:13:22.080Z,0.73
2023-03-02T07:15:49.851Z,0.82
2023-03-02T07:18:17.750Z,0.90
2023-03-02T07:20:45.672Z,0.93
2023-03-02T07:23:13.568Z,0.98
2023-03-02T07:25:41.587Z,1.03
2023-03-02T07:28:09.523Z,1.11
2023-03-02T07:30:37.597Z,1.19
2023-03-02T07:33:05.533Z,1.27
2023-03-02T07:35:33.487Z,1.33
2023-03-02T07:38:01.461Z,1.37
2023-03-02T07:40:29.399Z,1.40
2023-03-02T07:42:57.543Z,1.43
2023-03-02T07:45:26.431Z,1.46
2023-03-02T07:47:54.330Z,1.48
2023-03-02T07:50:22.401Z,1.48
2023-03-02T07:52:50.233Z,1.49
2023-03-02T07:55:18.072Z,1.53
2023-03-02T07:57:46.001Z,1.56
2023-03-02T08:00:14.812Z,1.53
2023-03-02T08:02:43.173Z,1.52
2023-03-02T08:05:12.214Z,1.55
2023-03-02T08:07:41.054Z,1.62
2023-03-02T08:10:10.621Z,1.66
2023-03-02T08:12:38.520Z,1.78
2023-03-02T08:15:07.300Z,1.90
2023-03-02T08:17:35.362Z,1.99
2023-03-02T08:20:04.707Z,2.07
2023-03-02T08:22:32.606Z,2.20
2023-03-02T08:25:00.557Z,2.23
2023-03-02T08:27:28.611Z,2.26
2023-03-02T08:29:56.985Z,2.33
2023-03-02T08:32:25.209Z,2.33
2023-03-02T08:34:53.204Z,2.38
2023-03-02T08:37:21.197Z,2.34
2023-03-02T08:39:49.607Z,2.40
2023-03-02T08:42:17.925Z,2.46
2023-03-02T08:44:45.895Z,2.58
2023-03-02T08:47:13.817Z,2.60
2023-03-02T08:49:41.865Z,2.67
2023-03-02T08:52:09.893Z,2.72
2023-03-02T08:54:40.708Z,2.70
2023-03-02T08:57:11.605Z,2.66
2023-03-02T08:59:40.065Z,2.72
2023-03-02T09:02:11.003Z,2.83
2023-03-02T09:04:39.395Z,2.87
2023-03-02T09:07:07.523Z,2.89
2023-03-02T09:09:35.657Z,2.99
2023-03-02T09:12:03.939Z,3.09
2023-03-02T09:14:31.768Z,3.27
2023-03-02T09:16:59.817Z,3.36
2023-03-02T09:19:27.906Z,3.38
2023-03-02T09:21:55.839Z,3.35
2023-03-02T09:24:23.859Z,3.30
2023-03-02T09:26:51.905Z,3.40
2023-03-02T09:29:19.911Z,3.46
2023-03-02T09:31:47.826Z,3.48
2023-03-02T09:34:15.812Z,3.50
2023-03-02T09:36:43.613Z,3.39
2023-03-02T09:39:12.587Z,3.37
2023-03-02T09:41:49.878Z,3.32
2023-03-02T09:44:38.652Z,3.36
2023-03-02T09:47:36.045Z,3.47
2023-03-02T09:50:16.071Z,3.49
2023-03-02T09:52:52.389Z,3.52
2023-03-02T09:55:26.011Z,3.51
2023-03-02T09:57:56.189Z,3.52
2023-03-02T10:00:28.542Z,3.54
2023-03-02T10:03:16.619Z,3.53
2023-03-02T10:05:51.362Z,3.56
2023-03-02T10:08:26.781Z,3.54
2023-03-02T10:10:58.122Z,3.54
2023-03-02T10:13:36.260Z,3.53
2023-03-02T10:16:13.071Z,3.59
2023-03-02T10:18:49.796Z,3.59
2023-03-02T10:21:27.072Z,3.60
2023-03-02T10:24:11.459Z,3.56
2023-03-02T10:26:44.831Z,3.54
2023-03-02T10:29:27.954Z,3.54
2023-03-02T10:32:21.500Z,3.68
2023-03-02T10:34:51.358Z,3.66
2023-03-02T10:37:28.536Z,3.66
2023-03-02T10:39:56.782Z,3.74
2023-03-02T10:42:32.633Z,3.84
2023-03-02T10:45:24.020Z,3.95
2023-03-02T10:48:06.869Z,4.05
2023-03-02T10:50:35.346Z,4.19
2023-03-02T10:53:06.308Z,4.25
2023-03-02T10:55:35.016Z,4.21
2023-03-02T10:58:07.265Z,4.21
2023-03-02T11:00:36.785Z,4.32
2023-03-02T11:03:20.285Z,4.40
2023-03-02T11:05:49.263Z,4.47
2023-03-02T11:08:18.405Z,4.52
2023-03-02T11:10:59.766Z,4.53
2023-03-02T11:13:38.698Z,4.47
2023-03-02T11:16:19.218Z,4.40
2023-03-02T11:18:55.511Z,4.35
2023-03-02T11:21:44.224Z,4.37
2023-03-02T11:24:21.485Z,4.38
2023-03-02T11:26:54.388Z,4.37
2023-03-02T11:29:35.633Z,4.30
2023-03-02T11:32:27.487Z,4.29
2023-03-02T11:35:02.966Z,4.25
2023-03-02T11:37:48.166Z,4.23
2023-03-02T11:40:24.852Z,4.26
2023-03-02T11:42:56.775Z,4.26
2023-03-02T11:45:28.492Z,4.37
2023-03-02T11:48:26.619Z,4.50
2023-03-02T11:50:57.922Z,4.53
2023-03-02T11:53:34.026Z,4.48
2023-03-02T11:56:02.071Z,4.43
2023-03-02T11:58:32.882Z,4.39
2023-03-02T12:01:02.032Z,4.37
2023-03-02T12:03:32.772Z,4.17
2023-03-02T12:06:05.245Z,4.11
2023-03-02T12:08:38.720Z,4.12
2023-03-02T12:11:06.601Z,4.13
2023-03-02T12:13:38.659Z,4.11
2023-03-02T12:16:35.853Z,4.13
2023-03-02T12:19:16.493Z,4.15
2023-03-02T12:21:56.995Z,4.23
2023-03-02T12:24:26.366Z,4.21
2023-03-02T12:27:25.807Z,4.18
2023-03-02T12:30:11.279Z,4.09
2023-03-02T12:32:39.401Z,4.06
2023-03-02T12:35:07.372Z,4.05
2023-03-02T12:38:05.462Z,4.08
2023-03-02T12:40:51.862Z,4.08
2023-03-02T12:44:06.228Z,4.08
2023-03-02T12:46:37.359Z,4.02
2023-03-02T12:49:20.251Z,4.00
2023-03-02T12:52:04.017Z,3.94
2023-03-02T12:54:34.589Z,3.85
2023-03-02T12:57:14.080Z,3.89
2023-03-02T12:59:42.946Z,3.92
2023-03-02T13:02:23.272Z,3.95
2023-03-02T13:04:55.491Z,4.03
2023-03-02T13:07:28.843Z,4.05
2023-03-02T13:09:58.857Z,4.11
2023-03-02T13:12:29.408Z,4.18
2023-03-02T13:14:59.153Z,4.11
2023-03-02T13:17:31.271Z,4.06
2023-03-02T13:20:01.721Z,4.14
2023-03-02T13:22:30.256Z,4.16
2023-03-02T13:25:02.158Z,4.16
2023-03-02T13:27:31.892Z,4.14
2023-03-02T13:30:23.883Z,4.19
2023-03-02T13:32:54.545Z,4.22
2023-03-02T13:35:26.726Z,4.22
2023-03-02T13:38:04.916Z,4.23
2023-03-02T13:40:47.789Z,4.20
2023-03-02T13:43:31.205Z,4.20
2023-03-02T13:46:00.470Z,4.27
2023-03-02T13:48:29.918Z,4.27
2023-03-02T13:51:01.585Z,4.22
2023-03-02T13:53:34.757Z,4.26
2023-03-02T13:56:03.932Z,4.33
2023-03-02T13:58:38.480Z,4.44
2023-03-02T14:01:07.718Z,4.48
2023-03-02T14:03:35.656Z,4.52
2023-03-02T14:06:03.572Z,4.58
2023-03-02T14:08:32.128Z,4.64
2023-03-02T14:11:02.639Z,4.57
2023-03-02T14:13:51.695Z,4.60
2023-03-02T14:16:20.177Z,4.63
2023-03-02T14:18:51.110Z,4.60
2023-03-02T14:21:24.382Z,4.59
2023-03-02T14:23:54.018Z,4.70
2023-03-02T14:26:54.423Z,4.72
2023-03-02T14:29:34.684Z,4.71
2023-03-02T14:32:04.436Z,4.73
2023-03-02T14:34:36.047Z,4.77
2023-03-02T14:37:10.718Z,4.76
2023-03-02T14:39:46.414Z,4.75
2023-03-02T14:42:17.029Z,4.68
2023-03-02T14:44:48.923Z,4.63
2023-03-02T14:47:19.529Z,4.54
2023-03-02T14:49:49.461Z,4.48
2023-03-02T14:52:28.331Z,4.45
2023-03-02T14:54:59.686Z,4.47
2023-03-02T14:57:30.447Z,4.46
2023-03-02T15:00:01.343Z,4.49
2023-03-02T15:02:29.383Z,4.51
2023-03-02T15:04:57.849Z,4.51
2023-03-02T15:07:28.098Z,4.45
2023-03-02T15:09:58.058Z,4.41
2023-03-02T15:12:26.427Z,4.32
2023-03-02T15:14:54.353Z,4.21
2023-03-02T15:17:22.276Z,4.16
2023-03-02T15:19:50.493Z,4.18
2023-03-02T15:22:18.505Z,4.19
2023-03-02T15:24:46.600Z,4.19
2023-03-02T15:27:14.624Z,4.16
2023-03-02T15:29:44.949Z,4.16
2023-03-02T15:32:13.090Z,4.20
2023-03-02T15:34:41.068Z,4.23
2023-03-02T15:37:11.671Z,4.22
2023-03-02T15:39:40.343Z,4.19
2023-03-02T15:42:08.260Z,4.15
2023-03-02T15:44:36.360Z,4.16
2023-03-02T15:47:04.477Z,4.15
2023-03-02T15:49:32.969Z,4.08
2023-03-02T15:52:00.983Z,4.09
2023-03-02T15:54:29.521Z,4.05
2023-03-02T15:56:57.606Z,4.00
2023-03-02T15:59:27.719Z,4.00
2023-03-02T16:01:59.820Z,3.95
2023-03-02T16:04:30.402Z,3.87
2023-03-02T16:06:58.903Z,3.85
2023-03-02T16:09:29.095Z,3.81
2023-03-02T16:11:57.688Z,3.77
2023-03-02T16:14:26.062Z,3.73
2023-03-02T16:16:54.089Z,3.70
2023-03-02T16:19:22.095Z,3.57
2023-03-02T16:21:50.105Z,3.44
2023-03-02T16:24:18.240Z,3.38
2023-03-02T16:26:46.280Z,3.31
2023-03-02T16:29:14.602Z,3.31
2023-03-02T16:31:46.169Z,3.27
2023-03-02T16:34:14.662Z,3.31
2023-03-02T16:36:42.992Z,3.30
2023-03-02T16:39:12.117Z,3.29
2023-03-02T16:41:43.196Z,3.24
2023-03-02T16:44:13.486Z,3.19
2023-03-02T16:46:43.708Z,3.17
2023-03-02T16:49:13.526Z,3.16
2023-03-02T16:51:42.071Z,3.11
2023-03-02T16:54:14.484Z,3.04
2023-03-02T16:56:45.370Z,3.04
2023-03-02T16:59:13.480Z,3.06
2023-03-02T17:01:41.537Z,3.02
2023-03-02T17:04:09.791Z,2.92
2023-03-02T17:06:38.919Z,2.86
2023-03-02T17:09:06.999Z,2.81
2023-03-02T17:11:35.053Z,2.74
2023-03-02T17:14:02.960Z,2.76
2023-03-02T17:16:30.969Z,2.83
2023-03-02T17:18:59.930Z,2.89
2023-03-02T17:21:27.862Z,2.92
2023-03-02T17:23:55.893Z,2.95
2023-03-02T17:26:23.746Z,2.98
2023-03-02T17:28:51.632Z,2.89
2023-03-02T17:31:19.468Z,2.81
2023-03-02T17:33:47.485Z,2.78
2023-03-02T17:36:15.871Z,2.76
2023-03-02T17:38:43.920Z,2.74
2023-03-02T17:41:12.088Z,2.72
2023-03-02T17:43:41.881Z,2.76
2023-03-02T17:46:14.765Z,2.76
2023-03-02T17:48:43.266Z,2.72
2023-03-02T17:51:11.911Z,2.71
2023-03-02T17:53:39.842Z,2.72
2023-03-02T17:56:07.949Z,2.72
2023-03-02T17:58:44.648Z,2.70
2023-03-02T18:01:15.991Z,2.71
2023-03-02T18:03:45.224Z,2.72
2023-03-02T18:06:14.741Z,2.75
2023-03-02T18:08:42.685Z,2.81
2023-03-02T18:11:10.717Z,2.83
2023-03-02T18:13:40.222Z,2.82
2023-03-02T18:16:08.878Z,2.71
2023-03-02T18:18:36.985Z,2.63
2023-03-02T18:21:05.946Z,2.56
2023-03-02T18:23:34.090Z,2.58
2023-03-02T18:26:02.150Z,2.55
2023-03-02T18:28:30.187Z,2.56
2023-03-02T18:30:58.092Z,2.53
2023-03-02T18:33:26.539Z,2.52
2023-03-02T18:35:54.557Z,2.44
2023-03-02T18:38:22.781Z,2.36
2023-03-02T18:40:50.678Z,2.41
2023-03-02T18:43:18.714Z,2.43
2023-03-02T18:45:46.702Z,2.43
2023-03-02T18:48:14.562Z,2.45
2023-03-02T18:50:43.747Z,2.48
2023-03-02T18:53:12.932Z,2.49
2023-03-02T18:55:41.380Z,2.47
2023-03-02T18:58:17.060Z,2.43
2023-03-02T19:00:46.341Z,2.37
2023-03-02T19:03:16.813Z,2.34
2023-03-02T19:05:45.498Z,2.33
2023-03-02T19:08:13.418Z,2.34
2023-03-02T19:10:42.446Z,2.32
2023-03-02T19:13:11.761Z,2.24
2023-03-02T19:15:40.475Z,2.20
2023-03-02T19:18:09.819Z,2.22
2023-03-02T19:20:37.697Z,2.16
2023-03-02T19:23:05.590Z,2.11
2023-03-02T19:25:34.006Z,2.12
2023-03-02T19:28:02.253Z,2.13
2023-03-02T19:30:30.360Z,2.17
2023-03-02T19:32:58.266Z,2.18
2023-03-02T19:35:27.848Z,2.13
2023-03-02T19:37:56.492Z,2.09
2023-03-02T19:40:27.182Z,2.05
2023-03-02T19:42:57.131Z,2.06
2023-03-02T19:45:29.385Z,2.08
2023-03-02T19:47:58.406Z,2.13
2023-03-02T19:50:27.966Z,2.15
2023-03-02T19:52:57.150Z,2.16
2023-03-02T19:55:25.845Z,2.15
2023-03-02T19:58:00.202Z,2.09
2023-03-02T20:00:30.749Z,2.06
2023-03-02T20:02:59.227Z,2.09
2023-03-02T20:05:27.945Z,2.13
2023-03-02T20:07:56.022Z,2.16
2023-03-02T20:10:37.424Z,2.17
2023-03-02T20:13:06.465Z,2.17
2023-03-02T20:15:38.690Z,2.18
2023-03-02T20:18:09.472Z,2.12
2023-03-02T20:20:37.605Z,2.11
2023-03-02T20:23:05.537Z,2.06
2023-03-02T20:25:34.844Z,2.05
2023-03-02T20:28:05.672Z,1.99
2023-03-02T20:30:38.038Z,1.92
2023-03-02T20:33:07.684Z,1.85
2023-03-02T20:35:40.144Z,1.83
2023-03-02T20:38:13.188Z,1.83
2023-03-02T20:40:41.641Z,1.77
2023-03-02T20:43:09.488Z,1.76
2023-03-02T20:45:37.489Z,1.70
2023-03-02T20:48:05.594Z,1.63
2023-03-02T20:50:35.237Z,1.58
2023-03-02T20:53:05.570Z,1.57
2023-03-02T20:55:34.481Z,1.55
2023-03-02T20:58:02.822Z,1.51
2023-03-02T21:00:32.998Z,1.48
2023-03-02T21:03:00.876Z,1.43
2023-03-02T21:05:30.907Z,1.36
2023-03-02T21:07:59.536Z,1.35
2023-03-02T21:10:32.176Z,1.31
2023-03-02T21:13:00.324Z,1.29
2023-03-02T21:15:28.925Z,1.30
2023-03-02T21:17:59.396Z,1.29
2023-03-02T21:20:32.060Z,1.29
2023-03-02T21:22:59.884Z,1.27
2023-03-02T21:25:28.371Z,1.21
2023-03-02T21:27:56.868Z,1.19
2023-03-02T21:30:29.376Z,1.22
2023-03-02T21:32:57.657Z,1.22
2023-03-02T21:35:25.959Z,1.21
2023-03-02T21:37:58.087Z,1.19
2023-03-02T21:40:31.898Z,1.14
2023-03-02T21:43:01.860Z,1.12
2023-03-02T21:45:29.793Z,1.06
2023-03-02T21:47:57.842Z,1.00
2023-03-02T21:50:29.616Z,0.94
2023-03-02T21:53:01.341Z,0.84
2023-03-02T21:55:30.913Z,0.83
2023-03-02T21:57:59.313Z,0.71
2023-03-02T22:00:37.502Z,0.64
2023-03-02T22:03:06.650Z,0.59
2023-03-02T22:05:34.517Z,0.58
2023-03-02T22:08:02.592Z,0.60
2023-03-02T22:10:32.654Z,0.62
2023-03-02T22:13:17.729Z,0.58
2023-03-02T22:15:47.706Z,0.56
2023-03-02T22:18:19.484Z,0.52
2023-03-02T22:20:50.096Z,0.49
2023-03-02T22:23:21.286Z,0.56
2023-03-02T22:26:14.718Z,0.61
2023-03-02T22:28:43.129Z,0.63
2023-03-02T22:31:20.169Z,0.61
2023-03-02T22:33:49.676Z,0.63
2023-03-02T22:36:23.503Z,0.65
2023-03-02T22:38:51.744Z,0.69
2023-03-02T22:41:20.519Z,0.70
2023-03-02T22:43:49.628Z,0.67
2023-03-02T22:46:20.721Z,0.63
2023-03-02T22:48:52.839Z,0.65
2023-03-02T22:51:28.015Z,0.67
2023-03-02T22:53:58.941Z,0.65
2023-03-02T22:56:29.662Z,0.61
2023-03-02T22:59:21.899Z,0.61
2023-03-02T23:01:50.566Z,0.66
2023-03-02T23:04:18.632Z,0.78
2023-03-02T23:06:50.349Z,0.87
2023-03-02T23:09:24.957Z,0.90
2023-03-02T23:11:56.600Z,0.89
2023-03-02T23:14:24.928Z,0.88
2023-03-02T23:16:58.370Z,0.83
2023-03-02T23:19:30.837Z,0.77
2023-03-02T23:21:58.836Z,0.84
2023-03-02T23:24:27.347Z,0.83
2023-03-02T23:26:55.512Z,0.81
2023-03-02T23:29:23.594Z,0.80
2023-03-02T23:31:51.761Z,0.71
2023-03-02T23:34:20.446Z,0.62
2023-03-02T23:36:48.407Z,0.60
2023-03-02T23:39:17.624Z,0.59
2023-03-02T23:41:45.700Z,0.56
2023-03-02T23:44:13.598Z,0.61
2023-03-02T23:46:41.500Z,0.61
2023-03-02T23:49:09.521Z,0.58
2023-03-02T23:51:37.466Z,0.54
2023-03-02T23:54:05.277Z,0.49
2023-03-02T23:56:33.243Z,0.56
2023-03-02T23:59:02.451Z,0.53
